sensor_id;sensor_type;location;lat;lon;timestamp;P1;durP1;ratioP1;P2;durP2;ratioP2
4325;SDS011;58429;49.826;10.880;2022-08-07T00:00:15;1.8;;;0.5;;
4325;SDS011;58429;49.826;10.880;2022-08-07T00:01:15;2;;;0.5;;
4325;SDS011;58429;49.826;10.880;2022-08-07T00:02:15;2;;;0.5;;
4325;SDS011;58429;49.826;10.880;2022-08-07T00:03:15;2;;;0.5;;
4325;SDS011;58429;49.826;10.880;2022-08-07T00:04:15;1.4;;;0.5;;
4325;SDS011;58429;49.826;10.880;2022-08-07T00:05:15;1.4;;;0.5;;
4325;SDS011;58429;49.826;10.880;2022-08-07T00:06:15;1.4;;;0.5;;
4325;SDS011;58429;49.826;10.880;2022-08-07T00:07:15;1.4;;;0.5;;
4325;SDS011;58429;49.826;10.880;2022-08-07T00:08:15;1.7;;;0.6;;
4325;SDS011;58429;49.826;10.880;2022-08-07T00:09:15;1.7;;;0.6;;
4325;SDS011;58429;49.826;10.880;2022-08-07T00:10:15;1.7;;;0.6;;
4325;SDS011;58429;49.826;10.880;2022-08-07T00:11:15;2.6;;;0.5;;
4325;SDS011;58429;49.826;10.880;2022-08-07T00:12:15;2.6;;;0.5;;
4325;SDS011;58429;49.826;10.880;2022-08-07T00:13:15;2.6;;;0.5;;
4325;SDS011;58429;49.826;10.880;2022-08-07T00:14:15;2.1;;;0.5;;
4325;SDS011;58429;49.826;10.880;2022-08-07T00:15:15;2.1;;;0.5;;
4325;SDS011;58429;49.826;10.880;2022-08-07T00:16:15;2.1;;;0.5;;
4325;SDS011;58429;49.826;10.880;2022-08-07T00:17:15;1.4;;;0.4;;
4325;SDS011;58429;49.826;10.880;2022-08-07T00:18:15;1.4;;;0.4;;
4325;SDS011;58429;49.826;10.880;2022-08-07T00:19:15;1.4;;;0.4;;
4325;SDS011;58429;49.826;10.880;2022-08-07T00:20:15;2.4;;;0.5;;
4325;SDS011;58429;49.826;10.880;2022-08-07T00:21:15;2.4;;;0.5;;
4325;SDS011;58429;49.826;10.880;2022-08-07T00:22:15;2.4;;;0.5;;
4325;SDS011;58429;49.826;10.880;2022-08-07T00:23:15;2.5;;;0.5;;
4325;SDS011;58429;49.826;10.880;2022-08-07T00:24:15;2.5;;;0.5;;
4325;SDS011;58429;49.826;10.880;2022-08-07T00:25:15;2.5;;;0.5;;
4325;SDS011;58429;49.826;10.880;2022-08-07T00:26:15;2.1;;;0.5;;
4325;SDS011;58429;49.826;10.880;2022-08-07T00:27:15;2.1;;;0.5;;
4325;SDS011;58429;49.826;10.880;2022-08-07T00:28:15;2.1;;;0.5;;
4325;SDS011;58429;49.826;10.880;2022-08-07T00:29:15;2;;;0.5;;
4325;SDS011;58429;49.826;10.880;2022-08-07T00:30:15;2;;;0.5;;
4325;SDS011;58429;49.826;10.880;2022-08-07T00:31:15;2;;;0.5;;
4325;SDS011;58429;49.826;10.880;2022-08-07T00:32:15;1.5;;;0.5;;
4325;SDS011;58429;49.826;10.880;2022-08-07T00:33:15;1.5;;;0.5;;
4325;SDS011;58429;49.826;10.880;2022-08-07T00:34:15;1.5;;;0.5;;
4325;SDS011;58429;49.826;10.880;2022-08-07T00:35:15;2.7;;;0.6;;
4325;SDS011;58429;49.826;10.880;2022-08-07T00:36:15;2.7;;;0.6;;
4325;SDS011;58429;49.826;10.880;2022-08-07T00:37:15;2.7;;;0.6;;
4325;SDS011;58429;49.826;10.880;2022-08-07T00:38:15;2.2;;;0.5;;
4325;SDS011;58429;49.826;10.880;2022-08-07T00:39:15;2.2;;;0.5;;
4325;SDS011;58429;49.826;10.880;2022-08-07T00:40:15;2.2;;;0.5;;
4325;SDS011;58429;49.826;10.880;2022-08-07T00:41:15;2;;;0.6;;
4325;SDS011;58429;49.826;10.880;2022-08-07T00:42:15;2;;;0.6;;
4325;SDS011;58429;49.826;10.880;2022-08-07T00:43:15;2;;;0.6;;
4325;SDS011;58429;49.826;10.880;2022-08-07T00:44:15;2.7;;;0.5;;
4325;SDS011;58429;49.826;10.880;2022-08-07T00:45:15;2.7;;;0.5;;
4325;SDS011;58429;49.826;10.880;2022-08-07T00:46:15;2.7;;;0.5;;
4325;SDS011;58429;49.826;10.880;2022-08-07T00:47:15;2.3;;;0.5;;
4325;SDS011;58429;49.826;10.880;2022-08-07T00:48:15;2.3;;;0.5;;
4325;SDS011;58429;49.826;10.880;2022-08-07T00:49:15;2.3;;;0.5;;
4325;SDS011;58429;49.826;10.880;2022-08-07T00:50:15;1.9;;;0.5;;
4325;SDS011;58429;49.826;10.880;2022-08-07T00:51:15;1.9;;;0.5;;
4325;SDS011;58429;49.826;10.880;2022-08-07T00:52:15;1.9;;;0.5;;
4325;SDS011;58429;49.826;10.880;2022-08-07T00:53:15;1.8;;;0.5;;
4325;SDS011;58429;49.826;10.880;2022-08-07T00:54:15;1.8;;;0.5;;
4325;SDS011;58429;49.826;10.880;2022-08-07T00:55:15;1.8;;;0.5;;
4325;SDS011;58429;49.826;10.880;2022-08-07T00:56:15;2;;;0.4;;
4325;SDS011;58429;49.826;10.880;2022-08-07T00:57:15;2;;;0.4;;
4325;SDS011;58429;49.826;10.880;2022-08-07T00:58:15;2;;;0.4;;
4325;SDS011;58429;49.826;10.880;2022-08-07T00:59:15;2;;;0.6;;
4325;SDS011;58429;49.826;10.880;2022-08-07T01:00:15;2;;;0.6;;
4325;SDS011;58429;49.826;10.880;2022-08-07T01:01:15;2;;;0.6;;
4325;SDS011;58429;49.826;10.880;2022-08-07T01:02:15;1.6;;;0.5;;
4325;SDS011;58429;49.826;10.880;2022-08-07T01:03:15;1.6;;;0.5;;
4325;SDS011;58429;49.826;10.880;2022-08-07T01:04:15;1.6;;;0.5;;
4325;SDS011;58429;49.826;10.880;2022-08-07T01:05:15;2.2;;;0.6;;
4325;SDS011;58429;49.826;10.880;2022-08-07T01:06:15;2.2;;;0.6;;
4325;SDS011;58429;49.826;10.880;2022-08-07T01:07:15;2.2;;;0.6;;
4325;SDS011;58429;49.826;10.880;2022-08-07T01:08:15;1.4;;;0.5;;
4325;SDS011;58429;49.826;10.880;2022-08-07T01:09:15;1.4;;;0.5;;
4325;SDS011;58429;49.826;10.880;2022-08-07T01:10:15;1.4;;;0.5;;
4325;SDS011;58429;49.826;10.880;2022-08-07T01:11:15;2.2;;;0.6;;
4325;SDS011;58429;49.826;10.880;2022-08-07T01:12:15;2.2;;;0.6;;
4325;SDS011;58429;49.826;10.880;2022-08-07T01:13:15;2.2;;;0.6;;
4325;SDS011;58429;49.826;10.880;2022-08-07T01:14:20;1.6;;;0.5;;
4325;SDS011;58429;49.826;10.880;2022-08-07T01:15:15;1.6;;;0.5;;
4325;SDS011;58429;49.826;10.880;2022-08-07T01:16:15;1.6;;;0.5;;
4325;SDS011;58429;49.826;10.880;2022-08-07T01:17:15;1.9;;;0.4;;
4325;SDS011;58429;49.826;10.880;2022-08-07T01:34:15;1.9;;;0.6;;
4325;SDS011;58429;49.826;10.880;2022-08-07T01:35:15;2.2;;;0.6;;
4325;SDS011;58429;49.826;10.880;2022-08-07T01:36:15;2.2;;;0.6;;
4325;SDS011;58429;49.826;10.880;2022-08-07T01:37:15;2.2;;;0.6;;
4325;SDS011;58429;49.826;10.880;2022-08-07T01:38:15;1.8;;;0.5;;
4325;SDS011;58429;49.826;10.880;2022-08-07T01:39:15;1.8;;;0.5;;
4325;SDS011;58429;49.826;10.880;2022-08-07T01:40:15;1.8;;;0.5;;
4325;SDS011;58429;49.826;10.880;2022-08-07T01:41:15;2.8;;;0.7;;
4325;SDS011;58429;49.826;10.880;2022-08-07T01:42:15;2.8;;;0.7;;
4325;SDS011;58429;49.826;10.880;2022-08-07T01:43:15;2.8;;;0.7;;
4325;SDS011;58429;49.826;10.880;2022-08-07T01:44:15;2.8;;;0.6;;
4325;SDS011;58429;49.826;10.880;2022-08-07T01:45:15;2.8;;;0.6;;
4325;SDS011;58429;49.826;10.880;2022-08-07T01:46:15;2.8;;;0.6;;
4325;SDS011;58429;49.826;10.880;2022-08-07T01:47:15;2.5;;;0.5;;
4325;SDS011;58429;49.826;10.880;2022-08-07T01:48:15;2.5;;;0.5;;
4325;SDS011;58429;49.826;10.880;2022-08-07T01:49:15;2.5;;;0.5;;
4325;SDS011;58429;49.826;10.880;2022-08-07T01:50:15;2.5;;;0.6;;
4325;SDS011;58429;49.826;10.880;2022-08-07T01:51:16;2.5;;;0.6;;
4325;SDS011;58429;49.826;10.880;2022-08-07T01:52:15;2.5;;;0.6;;
4325;SDS011;58429;49.826;10.880;2022-08-07T01:53:15;2;;;0.6;;
4325;SDS011;58429;49.826;10.880;2022-08-07T01:54:15;2;;;0.6;;
4325;SDS011;58429;49.826;10.880;2022-08-07T01:55:15;2;;;0.6;;
4325;SDS011;58429;49.826;10.880;2022-08-07T01:56:16;2;;;0.6;;
4325;SDS011;58429;49.826;10.880;2022-08-07T01:57:16;2;;;0.6;;
4325;SDS011;58429;49.826;10.880;2022-08-07T01:58:16;2;;;0.6;;
4325;SDS011;58429;49.826;10.880;2022-08-07T01:59:19;1.7;;;0.5;;
4325;SDS011;58429;49.826;10.880;2022-08-07T02:00:15;1.7;;;0.5;;
4325;SDS011;58429;49.826;10.880;2022-08-07T02:01:17;1.7;;;0.5;;
4325;SDS011;58429;49.826;10.880;2022-08-07T02:02:16;2.1;;;0.5;;
4325;SDS011;58429;49.826;10.880;2022-08-07T02:03:15;2.1;;;0.5;;
4325;SDS011;58429;49.826;10.880;2022-08-07T02:04:16;2.1;;;0.5;;
4325;SDS011;58429;49.826;10.880;2022-08-07T02:05:15;2.4;;;0.5;;
4325;SDS011;58429;49.826;10.880;2022-08-07T02:06:15;2.4;;;0.5;;
4325;SDS011;58429;49.826;10.880;2022-08-07T02:07:15;2.4;;;0.5;;
4325;SDS011;58429;49.826;10.880;2022-08-07T02:08:15;2.9;;;0.8;;
4325;SDS011;58429;49.826;10.880;2022-08-07T02:09:16;2.9;;;0.8;;
4325;SDS011;58429;49.826;10.880;2022-08-07T02:10:15;2.9;;;0.8;;
4325;SDS011;58429;49.826;10.880;2022-08-07T02:11:15;2.9;;;0.8;;
4325;SDS011;58429;49.826;10.880;2022-08-07T02:12:15;3.6;;;1;;
4325;SDS011;58429;49.826;10.880;2022-08-07T02:13:15;3.6;;;1;;
4325;SDS011;58429;49.826;10.880;2022-08-07T02:14:15;3.6;;;1;;
4325;SDS011;58429;49.826;10.880;2022-08-07T02:15:15;3;;;0.9;;
4325;SDS011;58429;49.826;10.880;2022-08-07T02:16:15;3;;;0.9;;
4325;SDS011;58429;49.826;10.880;2022-08-07T02:17:15;3;;;0.9;;
4325;SDS011;58429;49.826;10.880;2022-08-07T02:18:15;3.1;;;0.9;;
4325;SDS011;58429;49.826;10.880;2022-08-07T02:19:15;3.1;;;0.9;;
4325;SDS011;58429;49.826;10.880;2022-08-07T02:20:15;3.1;;;0.9;;
4325;SDS011;58429;49.826;10.880;2022-08-07T02:21:15;4.2;;;1;;
4325;SDS011;58429;49.826;10.880;2022-08-07T02:22:15;4.2;;;1;;
4325;SDS011;58429;49.826;10.880;2022-08-07T02:23:15;4.2;;;1;;
4325;SDS011;58429;49.826;10.880;2022-08-07T02:24:15;3.4;;;1.2;;
4325;SDS011;58429;49.826;10.880;2022-08-07T02:25:15;3.4;;;1.2;;
4325;SDS011;58429;49.826;10.880;2022-08-07T02:26:15;3.4;;;1.2;;
4325;SDS011;58429;49.826;10.880;2022-08-07T02:27:15;3.7;;;1;;
4325;SDS011;58429;49.826;10.880;2022-08-07T02:28:15;3.7;;;1;;
4325;SDS011;58429;49.826;10.880;2022-08-07T02:29:15;3.7;;;1;;
4325;SDS011;58429;49.826;10.880;2022-08-07T02:30:15;2.9;;;0.9;;
4325;SDS011;58429;49.826;10.880;2022-08-07T02:31:15;2.9;;;0.9;;
4325;SDS011;58429;49.826;10.880;2022-08-07T02:32:15;2.9;;;0.9;;
4325;SDS011;58429;49.826;10.880;2022-08-07T02:33:15;3.4;;;1;;
4325;SDS011;58429;49.826;10.880;2022-08-07T02:34:15;3.4;;;1;;
4325;SDS011;58429;49.826;10.880;2022-08-07T02:35:15;3.4;;;1;;
4325;SDS011;58429;49.826;10.880;2022-08-07T02:36:15;3.9;;;1;;
4325;SDS011;58429;49.826;10.880;2022-08-07T02:37:15;3.9;;;1;;
4325;SDS011;58429;49.826;10.880;2022-08-07T02:38:15;3.9;;;1;;
4325;SDS011;58429;49.826;10.880;2022-08-07T02:39:15;4.5;;;1.2;;
4325;SDS011;58429;49.826;10.880;2022-08-07T02:40:15;4.5;;;1.2;;
4325;SDS011;58429;49.826;10.880;2022-08-07T02:41:15;4.5;;;1.2;;
4325;SDS011;58429;49.826;10.880;2022-08-07T02:42:15;3;;;1;;
4325;SDS011;58429;49.826;10.880;2022-08-07T02:43:15;3;;;1;;
4325;SDS011;58429;49.826;10.880;2022-08-07T02:44:15;3;;;1;;
4325;SDS011;58429;49.826;10.880;2022-08-07T02:45:15;4.6;;;1.2;;
4325;SDS011;58429;49.826;10.880;2022-08-07T02:46:15;4.6;;;1.2;;
4325;SDS011;58429;49.826;10.880;2022-08-07T02:47:15;4.6;;;1.2;;
4325;SDS011;58429;49.826;10.880;2022-08-07T02:48:15;4.4;;;1.2;;
4325;SDS011;58429;49.826;10.880;2022-08-07T02:49:15;4.4;;;1.2;;
4325;SDS011;58429;49.826;10.880;2022-08-07T02:50:15;4.4;;;1.2;;
4325;SDS011;58429;49.826;10.880;2022-08-07T02:51:15;2.9;;;1;;
4325;SDS011;58429;49.826;10.880;2022-08-07T02:52:18;2.9;;;1;;
4325;SDS011;58429;49.826;10.880;2022-08-07T02:53:17;2.9;;;1;;
4325;SDS011;58429;49.826;10.880;2022-08-07T02:54:15;4;;;1.1;;
4325;SDS011;58429;49.826;10.880;2022-08-07T02:55:17;4;;;1.1;;
4325;SDS011;58429;49.826;10.880;2022-08-07T02:56:17;4;;;1.1;;
4325;SDS011;58429;49.826;10.880;2022-08-07T02:57:15;4.6;;;1.2;;
4325;SDS011;58429;49.826;10.880;2022-08-07T02:58:16;4.6;;;1.2;;
4325;SDS011;58429;49.826;10.880;2022-08-07T02:59:16;4.6;;;1.2;;
4325;SDS011;58429;49.826;10.880;2022-08-07T03:00:15;4;;;1.1;;
4325;SDS011;58429;49.826;10.880;2022-08-07T03:01:15;4;;;1.1;;
4325;SDS011;58429;49.826;10.880;2022-08-07T03:02:15;4;;;1.1;;
4325;SDS011;58429;49.826;10.880;2022-08-07T03:03:15;4.2;;;1.2;;
4325;SDS011;58429;49.826;10.880;2022-08-07T03:04:15;4.2;;;1.2;;
4325;SDS011;58429;49.826;10.880;2022-08-07T03:05:15;4.2;;;1.2;;
4325;SDS011;58429;49.826;10.880;2022-08-07T03:06:15;4;;;1.2;;
4325;SDS011;58429;49.826;10.880;2022-08-07T03:07:15;4;;;1.2;;
4325;SDS011;58429;49.826;10.880;2022-08-07T03:08:15;4;;;1.2;;
4325;SDS011;58429;49.826;10.880;2022-08-07T03:09:15;4.4;;;1.1;;
4325;SDS011;58429;49.826;10.880;2022-08-07T03:10:15;4.4;;;1.1;;
4325;SDS011;58429;49.826;10.880;2022-08-07T03:11:15;4.4;;;1.1;;
4325;SDS011;58429;49.826;10.880;2022-08-07T03:12:15;4.3;;;1.4;;
4325;SDS011;58429;49.826;10.880;2022-08-07T03:13:15;4.3;;;1.4;;
4325;SDS011;58429;49.826;10.880;2022-08-07T03:14:15;4.3;;;1.4;;
4325;SDS011;58429;49.826;10.880;2022-08-07T03:15:15;4.1;;;1.2;;
4325;SDS011;58429;49.826;10.880;2022-08-07T03:16:15;4.1;;;1.2;;
4325;SDS011;58429;49.826;10.880;2022-08-07T03:17:15;4.1;;;1.2;;
4325;SDS011;58429;49.826;10.880;2022-08-07T03:18:15;4.8;;;1.3;;
4325;SDS011;58429;49.826;10.880;2022-08-07T03:19:15;4.8;;;1.3;;
4325;SDS011;58429;49.826;10.880;2022-08-07T03:20:15;4.8;;;1.3;;
4325;SDS011;58429;49.826;10.880;2022-08-07T03:21:15;5.1;;;1.4;;
4325;SDS011;58429;49.826;10.880;2022-08-07T03:22:15;5.1;;;1.4;;
4325;SDS011;58429;49.826;10.880;2022-08-07T03:23:15;5.1;;;1.4;;
4325;SDS011;58429;49.826;10.880;2022-08-07T03:24:15;5.7;;;1.7;;
4325;SDS011;58429;49.826;10.880;2022-08-07T03:25:15;5.7;;;1.7;;
4325;SDS011;58429;49.826;10.880;2022-08-07T03:26:16;5.7;;;1.7;;
4325;SDS011;58429;49.826;10.880;2022-08-07T03:27:15;3.6;;;1.2;;
4325;SDS011;58429;49.826;10.880;2022-08-07T03:28:15;3.6;;;1.2;;
4325;SDS011;58429;49.826;10.880;2022-08-07T03:29:15;3.6;;;1.2;;
4325;SDS011;58429;49.826;10.880;2022-08-07T03:30:15;4.3;;;1.4;;
4325;SDS011;58429;49.826;10.880;2022-08-07T03:31:15;4.3;;;1.4;;
4325;SDS011;58429;49.826;10.880;2022-08-07T03:32:16;4.3;;;1.4;;
4325;SDS011;58429;49.826;10.880;2022-08-07T03:33:15;4;;;1.3;;
4325;SDS011;58429;49.826;10.880;2022-08-07T03:34:15;4;;;1.3;;
4325;SDS011;58429;49.826;10.880;2022-08-07T03:35:16;4;;;1.3;;
4325;SDS011;58429;49.826;10.880;2022-08-07T03:36:15;3.9;;;1.1;;
4325;SDS011;58429;49.826;10.880;2022-08-07T03:37:15;3.9;;;1.1;;
4325;SDS011;58429;49.826;10.880;2022-08-07T03:38:15;3.9;;;1.1;;
4325;SDS011;58429;49.826;10.880;2022-08-07T03:39:15;4.9;;;1.5;;
4325;SDS011;58429;49.826;10.880;2022-08-07T03:40:15;4.9;;;1.5;;
4325;SDS011;58429;49.826;10.880;2022-08-07T03:41:15;4.9;;;1.5;;
4325;SDS011;58429;49.826;10.880;2022-08-07T03:42:16;4;;;1.3;;
4325;SDS011;58429;49.826;10.880;2022-08-07T03:43:15;4;;;1.3;;
4325;SDS011;58429;49.826;10.880;2022-08-07T03:44:15;4;;;1.3;;
4325;SDS011;58429;49.826;10.880;2022-08-07T03:45:15;5.4;;;1.6;;
4325;SDS011;58429;49.826;10.880;2022-08-07T03:46:15;5.4;;;1.6;;
4325;SDS011;58429;49.826;10.880;2022-08-07T03:47:15;5.4;;;1.6;;
4325;SDS011;58429;49.826;10.880;2022-08-07T03:48:15;5.3;;;1.6;;
4325;SDS011;58429;49.826;10.880;2022-08-07T03:49:15;5.3;;;1.6;;
4325;SDS011;58429;49.826;10.880;2022-08-07T03:50:15;5.3;;;1.6;;
4325;SDS011;58429;49.826;10.880;2022-08-07T03:51:15;5.6;;;1.6;;
4325;SDS011;58429;49.826;10.880;2022-08-07T03:52:15;5.6;;;1.6;;
4325;SDS011;58429;49.826;10.880;2022-08-07T03:53:15;5.6;;;1.6;;
4325;SDS011;58429;49.826;10.880;2022-08-07T03:54:15;5.7;;;1.4;;
4325;SDS011;58429;49.826;10.880;2022-08-07T03:55:15;5.7;;;1.4;;
4325;SDS011;58429;49.826;10.880;2022-08-07T03:56:17;5.7;;;1.4;;
4325;SDS011;58429;49.826;10.880;2022-08-07T03:57:15;4.1;;;1.3;;
4325;SDS011;58429;49.826;10.880;2022-08-07T03:58:15;4.1;;;1.3;;
4325;SDS011;58429;49.826;10.880;2022-08-07T03:59:15;4.1;;;1.3;;
4325;SDS011;58429;49.826;10.880;2022-08-07T04:00:15;5.9;;;1.7;;
4325;SDS011;58429;49.826;10.880;2022-08-07T04:01:15;5.9;;;1.7;;
4325;SDS011;58429;49.826;10.880;2022-08-07T04:02:15;5.9;;;1.7;;
4325;SDS011;58429;49.826;10.880;2022-08-07T04:03:15;4.6;;;1.5;;
4325;SDS011;58429;49.826;10.880;2022-08-07T04:04:15;4.6;;;1.5;;
4325;SDS011;58429;49.826;10.880;2022-08-07T04:05:18;4.6;;;1.5;;
4325;SDS011;58429;49.826;10.880;2022-08-07T04:06:15;4.1;;;1.3;;
4325;SDS011;58429;49.826;10.880;2022-08-07T04:07:15;4.1;;;1.3;;
4325;SDS011;58429;49.826;10.880;2022-08-07T04:08:15;4.1;;;1.3;;
4325;SDS011;58429;49.826;10.880;2022-08-07T04:09:15;4.8;;;1.6;;
4325;SDS011;58429;49.826;10.880;2022-08-07T04:10:15;4.8;;;1.6;;
4325;SDS011;58429;49.826;10.880;2022-08-07T04:11:15;4.8;;;1.6;;
4325;SDS011;58429;49.826;10.880;2022-08-07T04:12:15;4.8;;;1.6;;
4325;SDS011;58429;49.826;10.880;2022-08-07T04:13:15;5.1;;;1.5;;
4325;SDS011;58429;49.826;10.880;2022-08-07T04:14:15;5.1;;;1.5;;
4325;SDS011;58429;49.826;10.880;2022-08-07T04:15:15;5.1;;;1.5;;
4325;SDS011;58429;49.826;10.880;2022-08-07T04:16:15;4.9;;;1.4;;
4325;SDS011;58429;49.826;10.880;2022-08-07T04:17:15;4.9;;;1.4;;
4325;SDS011;58429;49.826;10.880;2022-08-07T04:18:15;4.9;;;1.4;;
4325;SDS011;58429;49.826;10.880;2022-08-07T04:19:15;4.8;;;1.5;;
4325;SDS011;58429;49.826;10.880;2022-08-07T04:20:15;4.8;;;1.5;;
4325;SDS011;58429;49.826;10.880;2022-08-07T04:21:15;4.8;;;1.5;;
4325;SDS011;58429;49.826;10.880;2022-08-07T04:22:15;3.9;;;1.3;;
4325;SDS011;58429;49.826;10.880;2022-08-07T04:23:15;3.9;;;1.3;;
4325;SDS011;58429;49.826;10.880;2022-08-07T04:24:15;3.9;;;1.3;;
4325;SDS011;58429;49.826;10.880;2022-08-07T04:25:15;4.7;;;1.4;;
4325;SDS011;58429;49.826;10.880;2022-08-07T04:26:15;4.7;;;1.4;;
4325;SDS011;58429;49.826;10.880;2022-08-07T04:27:15;4.7;;;1.4;;
4325;SDS011;58429;49.826;10.880;2022-08-07T04:28:15;4.2;;;1.5;;
4325;SDS011;58429;49.826;10.880;2022-08-07T04:29:15;4.2;;;1.5;;
4325;SDS011;58429;49.826;10.880;2022-08-07T04:30:15;4.2;;;1.5;;
4325;SDS011;58429;49.826;10.880;2022-08-07T04:31:15;4.3;;;1.4;;
4325;SDS011;58429;49.826;10.880;2022-08-07T04:32:15;4.3;;;1.4;;
4325;SDS011;58429;49.826;10.880;2022-08-07T04:33:15;4.3;;;1.4;;
4325;SDS011;58429;49.826;10.880;2022-08-07T04:34:15;5;;;1.6;;
4325;SDS011;58429;49.826;10.880;2022-08-07T04:35:15;5;;;1.6;;
4325;SDS011;58429;49.826;10.880;2022-08-07T04:36:15;5;;;1.6;;
4325;SDS011;58429;49.826;10.880;2022-08-07T04:37:15;4.2;;;1.2;;
4325;SDS011;58429;49.826;10.880;2022-08-07T04:38:15;4.2;;;1.2;;
4325;SDS011;58429;49.826;10.880;2022-08-07T04:39:15;4.2;;;1.2;;
4325;SDS011;58429;49.826;10.880;2022-08-07T04:40:15;5.1;;;1.5;;
4325;SDS011;58429;49.826;10.880;2022-08-07T04:41:15;5.1;;;1.5;;
4325;SDS011;58429;49.826;10.880;2022-08-07T04:42:15;5.1;;;1.5;;
4325;SDS011;58429;49.826;10.880;2022-08-07T04:43:16;4.7;;;1.6;;
4325;SDS011;58429;49.826;10.880;2022-08-07T04:44:15;4.7;;;1.6;;
4325;SDS011;58429;49.826;10.880;2022-08-07T04:45:15;4.7;;;1.6;;
4325;SDS011;58429;49.826;10.880;2022-08-07T04:46:17;4.7;;;1.3;;
4325;SDS011;58429;49.826;10.880;2022-08-07T04:47:17;4.7;;;1.3;;
4325;SDS011;58429;49.826;10.880;2022-08-07T04:48:17;4.7;;;1.3;;
4325;SDS011;58429;49.826;10.880;2022-08-07T04:49:16;5;;;1.4;;
4325;SDS011;58429;49.826;10.880;2022-08-07T04:50:17;5;;;1.4;;
4325;SDS011;58429;49.826;10.880;2022-08-07T04:51:18;5;;;1.4;;
4325;SDS011;58429;49.826;10.880;2022-08-07T04:52:17;4.3;;;1.4;;
4325;SDS011;58429;49.826;10.880;2022-08-07T04:53:16;4.3;;;1.4;;
4325;SDS011;58429;49.826;10.880;2022-08-07T04:54:16;4.3;;;1.4;;
4325;SDS011;58429;49.826;10.880;2022-08-07T04:55:17;4.4;;;1.3;;
4325;SDS011;58429;49.826;10.880;2022-08-07T04:56:17;4.4;;;1.3;;
4325;SDS011;58429;49.826;10.880;2022-08-07T04:57:15;4.4;;;1.3;;
4325;SDS011;58429;49.826;10.880;2022-08-07T04:58:16;4.3;;;1.4;;
4325;SDS011;58429;49.826;10.880;2022-08-07T04:59:16;4.3;;;1.4;;
4325;SDS011;58429;49.826;10.880;2022-08-07T05:00:16;4.3;;;1.4;;
4325;SDS011;58429;49.826;10.880;2022-08-07T05:01:17;4.9;;;1.4;;
4325;SDS011;58429;49.826;10.880;2022-08-07T05:02:17;4.9;;;1.4;;
4325;SDS011;58429;49.826;10.880;2022-08-07T05:03:16;4.9;;;1.4;;
4325;SDS011;58429;49.826;10.880;2022-08-07T05:04:16;4;;;1.2;;
4325;SDS011;58429;49.826;10.880;2022-08-07T05:05:17;4;;;1.2;;
4325;SDS011;58429;49.826;10.880;2022-08-07T05:06:16;4;;;1.2;;
4325;SDS011;58429;49.826;10.880;2022-08-07T05:07:16;3.9;;;1.2;;
4325;SDS011;58429;49.826;10.880;2022-08-07T05:08:17;3.9;;;1.2;;
4325;SDS011;58429;49.826;10.880;2022-08-07T05:09:19;3.9;;;1.2;;
4325;SDS011;58429;49.826;10.880;2022-08-07T05:10:16;5.4;;;1.6;;
4325;SDS011;58429;49.826;10.880;2022-08-07T05:11:15;5.4;;;1.6;;
4325;SDS011;58429;49.826;10.880;2022-08-07T05:12:16;5.4;;;1.6;;
4325;SDS011;58429;49.826;10.880;2022-08-07T05:13:17;4.5;;;1.3;;
4325;SDS011;58429;49.826;10.880;2022-08-07T05:14:16;4.5;;;1.3;;
4325;SDS011;58429;49.826;10.880;2022-08-07T05:15:15;4.5;;;1.3;;
4325;SDS011;58429;49.826;10.880;2022-08-07T05:16:15;4.1;;;1.4;;
4325;SDS011;58429;49.826;10.880;2022-08-07T05:17:16;4.1;;;1.4;;
4325;SDS011;58429;49.826;10.880;2022-08-07T05:18:18;4.1;;;1.4;;
4325;SDS011;58429;49.826;10.880;2022-08-07T05:19:16;4.1;;;1.3;;
4325;SDS011;58429;49.826;10.880;2022-08-07T05:20:16;4.1;;;1.3;;
4325;SDS011;58429;49.826;10.880;2022-08-07T05:21:15;4.1;;;1.3;;
4325;SDS011;58429;49.826;10.880;2022-08-07T05:22:16;4.7;;;1.4;;
4325;SDS011;58429;49.826;10.880;2022-08-07T05:23:17;4.7;;;1.4;;
4325;SDS011;58429;49.826;10.880;2022-08-07T05:24:15;4.7;;;1.4;;
4325;SDS011;58429;49.826;10.880;2022-08-07T05:25:15;4.4;;;1.4;;
4325;SDS011;58429;49.826;10.880;2022-08-07T05:26:16;4.4;;;1.4;;
4325;SDS011;58429;49.826;10.880;2022-08-07T05:27:15;4.4;;;1.4;;
4325;SDS011;58429;49.826;10.880;2022-08-07T05:28:15;4.4;;;1.3;;
4325;SDS011;58429;49.826;10.880;2022-08-07T05:29:15;4.4;;;1.3;;
4325;SDS011;58429;49.826;10.880;2022-08-07T05:30:15;4.4;;;1.3;;
4325;SDS011;58429;49.826;10.880;2022-08-07T05:31:15;5.4;;;1.6;;
4325;SDS011;58429;49.826;10.880;2022-08-07T05:32:15;5.4;;;1.6;;
4325;SDS011;58429;49.826;10.880;2022-08-07T05:33:15;5.4;;;1.6;;
4325;SDS011;58429;49.826;10.880;2022-08-07T05:34:15;5.6;;;1.3;;
4325;SDS011;58429;49.826;10.880;2022-08-07T05:35:15;5.6;;;1.3;;
4325;SDS011;58429;49.826;10.880;2022-08-07T05:36:15;5.6;;;1.3;;
4325;SDS011;58429;49.826;10.880;2022-08-07T05:37:15;5.3;;;1.5;;
4325;SDS011;58429;49.826;10.880;2022-08-07T05:38:15;5.3;;;1.5;;
4325;SDS011;58429;49.826;10.880;2022-08-07T05:39:15;5.3;;;1.5;;
4325;SDS011;58429;49.826;10.880;2022-08-07T05:40:15;4.2;;;1.5;;
4325;SDS011;58429;49.826;10.880;2022-08-07T05:41:15;4.2;;;1.5;;
4325;SDS011;58429;49.826;10.880;2022-08-07T05:42:15;4.2;;;1.5;;
4325;SDS011;58429;49.826;10.880;2022-08-07T05:43:15;4.5;;;1.4;;
4325;SDS011;58429;49.826;10.880;2022-08-07T05:44:16;4.5;;;1.4;;
4325;SDS011;58429;49.826;10.880;2022-08-07T05:45:15;4.5;;;1.4;;
4325;SDS011;58429;49.826;10.880;2022-08-07T05:46:15;5.2;;;1.5;;
4325;SDS011;58429;49.826;10.880;2022-08-07T05:47:15;5.2;;;1.5;;
4325;SDS011;58429;49.826;10.880;2022-08-07T05:48:15;5.2;;;1.5;;
4325;SDS011;58429;49.826;10.880;2022-08-07T05:49:15;4.5;;;1.9;;
4325;SDS011;58429;49.826;10.880;2022-08-07T05:50:15;4.5;;;1.9;;
4325;SDS011;58429;49.826;10.880;2022-08-07T05:51:15;4.5;;;1.9;;
4325;SDS011;58429;49.826;10.880;2022-08-07T05:52:15;5;;;1.4;;
4325;SDS011;58429;49.826;10.880;2022-08-07T05:53:15;5;;;1.4;;
4325;SDS011;58429;49.826;10.880;2022-08-07T05:54:15;5;;;1.4;;
4325;SDS011;58429;49.826;10.880;2022-08-07T05:55:15;4.1;;;1.5;;
4325;SDS011;58429;49.826;10.880;2022-08-07T05:56:15;4.1;;;1.5;;
4325;SDS011;58429;49.826;10.880;2022-08-07T05:57:15;4.1;;;1.5;;
4325;SDS011;58429;49.826;10.880;2022-08-07T05:58:15;4;;;1.2;;
4325;SDS011;58429;49.826;10.880;2022-08-07T05:59:16;4;;;1.2;;
4325;SDS011;58429;49.826;10.880;2022-08-07T06:00:15;4;;;1.2;;
4325;SDS011;58429;49.826;10.880;2022-08-07T06:01:16;4.4;;;1.3;;
4325;SDS011;58429;49.826;10.880;2022-08-07T06:02:15;4.4;;;1.3;;
4325;SDS011;58429;49.826;10.880;2022-08-07T06:03:15;4.4;;;1.3;;
4325;SDS011;58429;49.826;10.880;2022-08-07T06:04:16;5.1;;;1.4;;
4325;SDS011;58429;49.826;10.880;2022-08-07T06:05:15;5.1;;;1.4;;
4325;SDS011;58429;49.826;10.880;2022-08-07T06:06:15;5.1;;;1.4;;
4325;SDS011;58429;49.826;10.880;2022-08-07T06:07:15;4;;;1.2;;
4325;SDS011;58429;49.826;10.880;2022-08-07T06:08:15;4;;;1.2;;
4325;SDS011;58429;49.826;10.880;2022-08-07T06:09:16;4;;;1.2;;
4325;SDS011;58429;49.826;10.880;2022-08-07T06:10:15;4;;;1.2;;
4325;SDS011;58429;49.826;10.880;2022-08-07T06:11:15;3.9;;;1.1;;
4325;SDS011;58429;49.826;10.880;2022-08-07T06:12:15;3.9;;;1.1;;
4325;SDS011;58429;49.826;10.880;2022-08-07T06:13:15;3.9;;;1.1;;
4325;SDS011;58429;49.826;10.880;2022-08-07T06:14:15;4.6;;;1.2;;
4325;SDS011;58429;49.826;10.880;2022-08-07T06:15:15;4.6;;;1.2;;
4325;SDS011;58429;49.826;10.880;2022-08-07T06:16:15;4.6;;;1.2;;
4325;SDS011;58429;49.826;10.880;2022-08-07T06:17:15;3.4;;;1.1;;
4325;SDS011;58429;49.826;10.880;2022-08-07T06:18:15;3.4;;;1.1;;
4325;SDS011;58429;49.826;10.880;2022-08-07T06:19:15;3.4;;;1.1;;
4325;SDS011;58429;49.826;10.880;2022-08-07T06:20:15;3.8;;;1.2;;
4325;SDS011;58429;49.826;10.880;2022-08-07T06:21:15;3.8;;;1.2;;
4325;SDS011;58429;49.826;10.880;2022-08-07T06:22:15;3.8;;;1.2;;
4325;SDS011;58429;49.826;10.880;2022-08-07T06:23:15;3.5;;;0.9;;
4325;SDS011;58429;49.826;10.880;2022-08-07T06:24:15;3.5;;;0.9;;
4325;SDS011;58429;49.826;10.880;2022-08-07T06:25:15;3.5;;;0.9;;
4325;SDS011;58429;49.826;10.880;2022-08-07T06:26:15;3.4;;;1.1;;
4325;SDS011;58429;49.826;10.880;2022-08-07T06:27:19;3.4;;;1.1;;
4325;SDS011;58429;49.826;10.880;2022-08-07T06:28:15;3.4;;;1.1;;
4325;SDS011;58429;49.826;10.880;2022-08-07T06:29:15;4.4;;;1;;
4325;SDS011;58429;49.826;10.880;2022-08-07T06:30:15;4.4;;;1;;
4325;SDS011;58429;49.826;10.880;2022-08-07T06:31:15;4.4;;;1;;